SUSQUEDA - VEÏNAT DEL COLL (La Selva)





Hora UTC 19:10
Temperatura 3.3 ºC
Humitat 56.2 %
Pressió 1004.6 hPa
Pluja 0.7 mm
Velocitat vent 2.7 km/h
Direcció vent SW
Radiació solar 0.2 W/m²

Dades diàries 2024-02-23



Hora UTC (hivern +1h; estiu +2h)
Temperatura (ºC) Humitat (%) Pressió (hPa) Velocitat vent (km/h) Precipitació (mm) Radiació solar (W/m²)
Hora UTC Aire Humitat Pressió Vel. Dir. Vel. Max Dir. Intent. màx 5 min. Rad. Sol.
00:05 6.0 96.1 1003.4 10.7 SE 10.7 SE 0.0 0.1
00:10 6.0 96.6 1003.4 10.0 SSE 16.9 SSE 0.3 0.1
00:15 6.0 96.8 1003.7 10.2 SSE 18.4 SSE 0.2 0.1
00:20 5.9 97.0 1003.7 9.9 SSE 17.3 SSE 0.1 0.1
00:25 5.9 97.2 1003.7 9.1 SSE 18.4 SE 0.0 0.1
00:30 5.8 97.2 1003.7 11.6 SSE 23.6 S 0.1 0.1
00:35 5.9 97.4 1003.6 11.4 SSE 21.9 S 0.0 0.1
00:40 5.8 97.5 1003.6 9.8 SSE 17.3 S 0.0 0.1
00:45 5.8 97.5 1003.3 13.1 SSE 26.5 SSE 0.0 0.1
00:50 5.7 97.6 1003.3 11.8 SSE 19.4 SSE 0.0 0.1
00:55 5.8 97.7 1003.2 11.1 SSE 23.3 S 0.0 0.1
01:00 5.8 97.7 1003.2 11.7 SSE 19.1 S 0.0 0.1
01:05 5.8 97.8 1003.1 11.3 SSE 18.0 SSE 0.0 0.1
01:10 5.7 97.8 1003.1 10.2 SSE 20.1 SSE 0.0 0.1
01:15 5.6 97.8 1002.9 10.0 SSE 21.5 SE 0.0 0.1
01:20 5.5 97.8 1002.9 13.5 SSE 29.6 SSE 0.0 0.1
01:25 5.5 97.8 1002.8 12.7 SSE 24.3 SSE 0.0 0.1
01:30 5.5 97.8 1002.8 13.1 SSE 27.5 S 0.0 0.1
01:35 5.4 98.0 1003.1 18.0 SSE 29.3 SSE 0.0 0.1
01:40 5.6 98.0 1003.1 14.2 SSE 30.7 SE 0.0 0.1
01:45 5.6 98.0 1003.3 7.0 SE 22.6 ESE 0.0 0.2
01:50 5.2 97.6 1003.3 4.7 ENE 8.1 ESE 0.0 0.1
01:55 5.1 98.0 1003.2 10.6 SE 21.2 SSE 0.0 0.1
02:00 5.4 98.2 1003.2 13.4 SSE 21.9 SSE 0.0 0.1
02:05 5.5 98.1 1002.9 10.3 SSE 19.8 S 0.0 0.1
02:10 5.4 98.0 1002.9 3.3 NE 9.2 NNW 0.0 0.1
02:15 5.4 98.1 1003.0 5.0 ENE 10.6 NE 0.0 0.1
02:20 5.4 98.1 1003.0 5.2 NNE 12.4 E 0.0 0.1
02:25 5.5 98.1 1002.7 3.6 NNE 8.5 NE 0.0 0.1
02:30 5.3 98.1 1002.7 1.4 E 4.9 E 0.0 0.1
02:35 5.3 98.0 1002.5 2.9 NE 6.7 NE 0.0 0.1
02:40 5.2 98.1 1002.5 3.0 ENE 7.1 E 0.0 0.1
02:45 5.2 98.1 1002.6 2.8 NE 7.8 NNE 0.0 0.1
02:50 5.1 98.1 1002.6 3.7 NE 9.5 NE 0.0 0.1
02:55 4.8 98.0 1002.5 4.9 W 14.5 NW 0.0 0.1
03:00 4.5 98.1 1002.5 5.3 SSW 12.7 SE 0.0 0.1
03:05 4.5 98.0 1002.6 3.7 NNE 10.6 E 0.0 0.1
03:10 4.4 98.0 1002.6 3.6 ENE 9.2 ESE 0.0 0.1
03:15 4.3 98.0 1002.4 3.7 NNE 11.6 W 0.0 0.1
03:20 4.3 98.1 1002.4 3.9 NNE 9.5 NNE 0.0 0.1
03:25 4.2 98.1 1002.5 4.0 NNW 11.6 W 0.0 0.1
03:30 4.1 98.0 1002.5 4.2 NNW 12.4 N 0.0 0.1
03:35 4.0 98.1 1002.4 2.6 N 13.1 NNW 0.0 0.1
03:40 3.9 98.1 1002.4 3.0 NE 6.7 NE 0.0 0.1
03:45 3.8 98.0 1002.4 4.1 E 10.2 ENE 0.0 0.1
03:50 3.6 98.0 1002.4 2.2 S 7.8 SSE 0.0 0.1
03:55 3.6 98.0 1002.4 2.5 N 7.4 NE 0.0 0.1
04:00 3.5 98.0 1002.4 2.9 N 9.5 NE 0.0 0.1
04:05 3.4 98.1 1002.5 1.2 ENE 5.6 N 0.0 0.1
04:10 3.2 98.0 1002.5 2.5 W 7.1 W 0.0 0.1
04:15 3.1 98.0 1002.5 1.6 WNW 6.7 NNE 0.0 0.1
04:20 2.8 97.9 1002.5 2.9 NW 8.8 WSW 0.0 0.1
04:25 2.5 97.8 1002.5 4.7 W 13.8 WNW 0.0 0.1
04:30 2.3 97.7 1002.5 2.6 WSW 7.8 W 0.0 0.1
04:35 2.2 97.6 1002.5 2.6 SW 8.5 WSW 0.0 0.1
04:40 2.1 97.5 1002.5 3.8 SSW 9.9 SW 0.0 0.1
04:45 1.9 97.3 1002.6 3.2 SSE 10.9 SE 0.0 0.1
04:50 1.8 97.2 1002.6 3.3 SE 9.5 ESE 0.0 0.1
04:55 2.0 97.4 1002.7 1.9 SSE 6.7 ESE 0.0 0.1
05:00 1.9 97.4 1002.7 1.8 ENE 5.3 E 0.0 0.1
05:05 1.8 97.3 1002.8 1.5 ESE 3.2 E 0.0 0.1
05:10 1.5 97.3 1002.8 2.1 SE 3.9 ESE 0.0 0.1
05:15 1.4 97.4 1002.6 2.2 SSW 7.8 SSW 0.0 0.1
05:20 1.4 97.5 1002.6 3.1 SSE 5.3 S 0.0 0.1
05:25 1.4 97.5 1002.5 1.5 SE 6.0 SE 0.0 0.1
05:30 1.4 97.6 1002.5 2.3 WSW 12.0 WNW 0.0 0.1
05:35 1.4 97.4 1002.4 3.6 W 12.7 W 0.0 0.1
05:40 1.3 97.0 1002.4 4.5 W 13.1 WNW 0.0 0.2
05:45 1.2 96.3 1002.5 2.4 SSW 6.7 SW 0.0 0.1
05:50 1.2 96.1 1002.5 2.7 SSE 7.4 SE 0.0 0.1
05:55 1.2 96.1 1002.6 3.0 SSE 6.7 SSE 0.0 0.1
06:00 1.0 96.4 1002.6 1.5 ESE 4.9 S 0.0 0.1
06:05 1.1 96.8 1002.7 2.0 SSE 10.2 E 0.0 0.1
06:10 1.2 96.7 1002.7 2.2 S 7.1 WSW 0.0 0.1
06:15 1.2 96.7 1002.7 2.3 WNW 12.4 W 0.0 0.1
06:20 1.3 96.7 1002.7 1.4 W 8.1 WSW 0.0 0.2
06:25 1.3 96.8 1002.7 1.7 W 7.8 WNW 0.0 0.3
06:30 1.3 96.7 1002.7 2.7 SW 5.6 W 0.0 0.8
06:35 1.3 96.8 1002.8 1.9 S 4.9 SSE 0.0 1.3
06:40 1.2 96.8 1002.8 2.6 SSE 7.1 SSW 0.0 2.1
06:45 1.0 96.8 1002.9 2.9 NE 5.6 ENE 0.0 3.0
06:50 1.0 97.0 1002.9 1.1 SE 3.9 ENE 0.0 4.1
06:55 1.0 97.1 1003.0 1.9 NNE 4.2 E 0.0 3.6
07:00 1.0 97.1 1003.0 0.6 SSE 3.9 SW 0.0 3.8
07:05 1.0 97.1 1003.2 2.2 E 4.6 SE 0.0 4.3
07:10 1.0 97.2 1003.2 2.3 NNE 5.3 NNE 0.0 4.7
07:15 1.0 97.2 1003.4 1.2 NNE 3.9 N 0.0 5.7
07:20 1.0 97.2 1003.4 1.7 NE 4.9 E 0.0 8.5
07:25 1.0 97.1 1003.5 2.1 ESE 8.5 SE 0.0 11.5
07:30 1.0 97.2 1003.5 5.4 SSE 12.4 SE 0.0 14.8
07:35 1.0 97.1 1003.6 3.4 S 7.1 S 0.0 21.5
07:40 1.0 97.2 1003.6 3.0 S 6.4 S 0.0 28.1
07:45 1.0 97.2 1003.8 2.1 SSE 10.6 NW 0.0 37.7
07:50 1.0 97.1 1003.8 2.2 NW 5.6 WSW 0.0 53.8
07:55 1.1 97.0 1003.9 3.4 NW 10.2 NW 0.0 45.8
08:00 1.0 96.4 1003.9 1.5 NNW 6.0 NNE 0.0 51.9
08:05 1.2 96.5 1003.9 1.9 NW 6.7 NE 0.0 51.9
08:10 1.2 96.3 1003.9 1.8 NNW 5.6 N 0.0 58.2
08:15 1.2 96.1 1004.0 3.2 NW 7.4 NW 0.0 89.2
08:20 1.4 96.1 1004.0 1.3 NW 5.3 WNW 0.0 146.7
08:25 1.4 95.6 1004.0 3.2 NW 8.8 W 0.0 154.6
08:30 1.7 95.2 1004.0 2.8 NE 8.5 W 0.0 133.7
08:35 1.7 94.2 1004.0 3.9 NW 10.2 NNW 0.0 130.9
08:40 1.8 94.6 1004.0 0.9 NW 3.5 WNW 0.0 127.8
08:45 1.9 93.3 1004.1 2.4 W 7.1 W 0.0 144.6
08:50 1.9 93.5 1004.1 2.8 SE 8.1 SE 0.0 173.3
08:55 1.7 92.8 1004.2 2.7 N 8.5 NW 0.0 208.8
09:00 1.9 93.8 1004.2 1.9 SE 6.7 SSE 0.0 248.3
09:05 2.4 94.9 1004.0 4.9 E 12.0 E 0.0 246.1
09:10 2.5 93.7 1004.0 3.4 ENE 7.8 ENE 0.0 209.7
09:15 2.3 90.0 1004.0 3.9 NNW 12.0 NNW 0.0 182.5
09:20 2.2 90.4 1004.0 4.9 WSW 15.2 SSW 0.0 177.1
09:25 2.1 88.8 1003.9 3.4 SW 8.8 SSW 0.0 201.0
09:30 2.1 89.5 1003.9 2.8 S 9.2 SW 0.0 274.3
09:35 2.6 89.8 1003.9 4.1 W 14.1 W 0.0 484.5
09:40 3.1 85.7 1003.9 4.2 WSW 15.9 W 0.0 418.8
09:45 3.1 85.3 1003.9 2.3 SSE 9.9 ESE 0.0 542.9
09:50 3.3 82.1 1003.9 4.5 S 14.8 S 0.0 298.4
09:55 3.0 82.3 1004.1 4.5 WSW 14.5 WNW 0.0 370.3
10:00 3.1 79.8 1004.1 7.8 SSW 14.8 SW 0.0 269.9
10:05 2.9 81.7 1004.1 6.1 SSW 14.5 S 0.0 258.9
10:10 2.9 81.3 1004.1 5.5 SSW 12.7 S 0.0 221.3
10:15 2.8 83.0 1004.1 2.4 ENE 7.8 WNW 0.0 409.5
10:20 3.1 80.9 1004.1 5.1 WSW 15.2 WNW 0.0 531.4
10:25 3.5 80.9 1004.1 4.0 NW 9.9 WNW 0.0 445.5
10:30 3.5 79.7 1004.1 2.6 NW 11.3 SW 0.0 233.8
10:35 3.1 80.7 1004.2 4.1 W 12.4 WNW 0.0 290.7
10:40 3.0 80.8 1004.2 4.4 SW 11.6 SW 0.0 521.1
10:45 3.3 79.6 1004.2 4.3 WSW 13.1 W 0.0 612.6
10:50 3.6 78.1 1004.2 4.7 W 18.4 SW 0.0 630.0
10:55 4.2 76.0 1004.2 5.9 WNW 18.7 WNW 0.0 628.7
11:00 3.9 75.5 1004.2 7.7 WSW 16.2 W 0.0 659.2
11:05 4.1 74.8 1004.1 4.8 W 16.2 WSW 0.0 667.3
11:10 4.2 72.7 1004.1 6.1 SW 19.1 SSW 0.0 644.6
11:15 4.2 72.0 1004.0 6.5 WSW 18.4 WNW 0.0 652.6
11:20 4.5 69.1 1004.0 6.5 W 22.2 W 0.0 656.2
11:25 4.3 68.4 1004.0 8.0 WSW 21.5 WNW 0.0 665.7
11:30 4.5 67.6 1004.0 5.0 WNW 20.5 WNW 0.0 690.4
11:35 4.9 66.0 1004.1 4.8 WNW 14.5 SW 0.0 550.1
11:40 5.0 65.0 1004.1 4.4 S 16.2 W 0.0 618.1
11:45 5.5 62.8 1004.1 4.6 SSW 12.0 W 0.0 688.7
11:50 6.0 60.8 1004.1 4.5 ENE 11.6 NE 0.0 674.6
11:55 6.0 59.4 1004.0 5.5 ENE 14.1 E 0.0 673.9
12:00 6.0 58.9 1004.0 7.2 SSE 14.1 ENE 0.0 673.6
12:05 6.2 58.2 1003.8 5.4 ESE 12.7 ESE 0.0 673.0
12:10 6.1 56.9 1003.8 6.1 ESE 14.5 ENE 0.0 671.0
12:15 6.4 54.9 1003.8 6.4 SE 18.7 S 0.0 725.4
12:20 6.3 55.1 1003.8 4.6 NW 15.2 WSW 0.0 731.5
12:25 6.5 53.7 1003.6 3.9 SSE 10.6 WSW 0.0 329.5
12:30 6.1 54.0 1003.6 3.6 SW 13.8 SW 0.0 663.2
12:35 6.6 53.5 1003.5 4.1 SSE 9.5 NW 0.0 665.5
12:40 7.2 50.8 1003.5 3.8 W 20.8 S 0.0 490.3
12:45 6.2 53.1 1003.5 3.9 NE 13.4 NNW 0.0 499.9
12:50 6.1 54.5 1003.5 5.0 E 16.9 NNE 0.0 316.1
12:55 5.7 56.0 1003.3 3.4 WSW 12.4 SW 0.0 263.5
13:00 5.6 55.8 1003.3 9.0 SW 16.9 SSW 0.0 646.8
13:05 5.9 55.6 1003.3 3.9 WSW 14.8 S 0.0 286.0
13:10 5.4 55.9 1003.3 3.9 WSW 13.4 W 0.0 270.3
13:15 5.3 56.4 1003.2 6.4 SW 15.2 SW 0.0 516.6
13:20 5.6 56.0 1003.2 3.9 W 14.1 WSW 0.0 387.6
13:25 5.8 55.2 1003.1 3.6 NNW 14.1 WNW 0.0 327.4
13:30 6.1 55.0 1003.1 3.4 NE 8.5 W 0.0 566.8
13:35 6.6 52.6 1003.1 5.3 WSW 16.6 NNW 0.0 260.4
13:40 6.3 53.1 1003.1 5.3 SSW 12.0 SSW 0.0 234.5
13:45 6.0 53.4 1003.0 4.4 WSW 11.3 W 0.0 407.1
13:50 6.4 52.7 1003.0 5.3 SSW 10.9 SE 0.0 609.9
13:55 6.8 50.7 1003.0 4.9 SSW 13.4 SSW 0.0 554.9
14:00 6.8 50.5 1003.0 4.6 SSE 13.4 SSE 0.0 556.3
14:05 7.0 49.9 1003.1 3.9 E 14.1 W 0.0 124.1
14:10 6.4 51.2 1003.1 5.3 WSW 14.1 WSW 0.0 310.0
14:15 6.6 51.6 1003.1 4.6 NNW 14.8 NW 0.0 460.3
14:20 6.6 49.8 1003.1 4.6 SSE 11.3 SW 0.0 334.2
14:25 6.6 50.7 1003.1 3.5 S 10.6 E 0.0 477.0
14:30 7.0 49.0 1003.1 4.5 N 12.0 SE 0.0 305.0
14:35 6.6 48.3 1003.1 4.0 WNW 12.0 SW 0.0 215.4
14:40 6.6 49.6 1003.1 3.3 N 11.3 WNW 0.0 161.7
14:45 6.5 49.0 1003.1 5.3 E 13.4 SE 0.0 153.9
14:50 6.3 49.6 1003.1 2.5 NNE 7.4 ENE 0.0 205.2
14:55 6.5 48.7 1003.1 2.9 SSE 7.8 SE 0.0 258.7
15:00 6.6 47.4 1003.1 2.0 WSW 6.0 NNW 0.0 164.7
15:05 6.8 48.4 1003.1 2.8 E 7.1 ESE 0.0 166.2
15:10 6.8 48.6 1003.1 7.6 ENE 17.6 ESE 0.0 159.3
15:15 6.5 48.6 1003.1 4.7 NNE 13.8 E 0.0 137.3
15:20 6.5 49.5 1003.1 6.0 NNE 12.0 NNE 0.0 123.6
15:25 6.3 51.1 1003.1 5.6 NNE 19.1 N 0.0 119.5
15:30 6.4 51.6 1003.1 5.6 E 12.7 E 0.0 111.7
15:35 6.3 51.4 1003.1 8.1 NE 18.7 ENE 0.0 156.5
15:40 6.3 50.3 1003.1 5.4 ESE 18.0 E 0.0 150.1
15:45 6.3 50.7 1003.1 8.9 ESE 17.6 SE 0.0 110.3
15:50 6.3 50.1 1003.1 4.7 NNE 16.6 NNE 0.0 72.9
15:55 6.1 50.5 1003.1 7.4 NNE 16.2 NNW 0.0 69.8
16:00 6.0 49.9 1003.1 6.0 SE 18.4 E 0.0 65.1
16:05 6.0 50.2 1003.1 4.3 NE 17.3 ENE 0.0 58.2
16:10 5.9 48.8 1003.1 6.3 NE 17.6 ENE 0.0 60.7
16:15 5.8 49.8 1003.3 5.8 NNE 19.4 E 0.0 64.2
16:20 5.8 50.0 1003.3 4.1 NNE 10.6 NNE 0.0 70.1
16:25 5.8 50.7 1003.3 6.6 NNE 17.3 N 0.0 68.6
16:30 5.8 49.6 1003.3 7.3 E 18.7 WSW 0.0 59.3
16:35 5.8 49.0 1003.4 3.7 SW 8.8 N 0.0 50.4
16:40 5.9 49.0 1003.4 3.4 W 9.2 S 0.0 60.4
16:45 5.8 49.5 1003.5 4.6 E 14.8 NE 0.0 73.2
16:50 5.8 49.8 1003.5 3.4 NNE 12.7 WNW 0.0 70.8
16:55 5.7 54.1 1003.5 5.0 SE 11.6 E 0.0 57.2
17:00 5.2 61.9 1003.5 4.8 ESE 14.1 E 0.0 50.3
17:05 5.0 62.2 1003.5 2.1 E 6.4 NE 0.0 36.0
17:10 5.0 60.2 1003.5 2.4 NE 7.1 NNE 0.0 20.8
17:15 4.8 59.2 1003.7 5.4 SE 14.1 ESE 0.0 14.2
17:20 4.6 59.5 1003.7 4.6 SSE 9.9 ESE 0.0 10.3
17:25 4.4 59.7 1003.9 3.7 SSW 10.6 NNE 0.0 8.8
17:30 4.6 53.2 1003.9 7.1 SSW 21.5 SSE 0.0 6.5
17:35 4.7 50.9 1003.9 5.5 SSW 15.9 ESE 0.0 3.6
17:40 4.8 50.6 1003.9 3.4 SSE 8.5 S 0.0 1.7
17:45 4.6 52.3 1004.0 5.8 ENE 10.2 NE 0.0 0.8
17:50 4.5 52.9 1004.0 4.2 NNE 10.9 NE 0.0 0.2
17:55 4.3 52.8 1004.0 4.4 NE 10.2 WNW 0.0 0.3
18:00 4.4 52.6 1004.0 6.5 NW 21.2 N 0.0 0.2
18:05 4.3 53.3 1004.1 4.6 NNE 16.2 NNE 0.0 0.1
18:10 4.1 54.6 1004.1 3.9 NE 14.5 ENE 0.0 0.1
18:15 4.0 55.5 1004.3 8.0 NNW 18.7 ENE 0.0 0.1
18:20 4.0 54.7 1004.3 6.0 N 15.2 NNW 0.0 0.1
18:25 4.0 54.5 1004.3 5.6 SE 14.5 SSW 0.0 0.2
18:30 3.9 54.7 1004.3 6.6 S 17.6 ENE 0.0 0.1
18:35 3.7 54.9 1004.3 4.3 SE 9.9 ESE 0.0 0.1
18:40 3.7 54.9 1004.3 5.8 ENE 15.2 SSW 0.0 0.1
18:45 3.7 54.4 1004.5 5.2 ESE 15.9 E 0.0 0.2
18:50 3.7 54.6 1004.5 4.8 SSW 14.1 E 0.0 0.1
18:55 3.6 55.0 1004.6 4.1 SE 11.6 NNE 0.0 0.2
19:00 3.5 55.3 1004.6 4.3 NE 9.5 NNE 0.0 0.1
19:05 3.3 56.2 1004.6 6.1 S 14.5 SE 0.0 0.1
19:10 3.3 56.2 1004.6 2.7 SW 7.8 W 0.0 0.2
Màxima 7.9 98.2 1004.6 18.0 SSE 30.7 SE 0.3 731.5
Mínima 0.7 47.4 1002.4
Total 0.7